Time;durP1;ratioP1;P1;durP2;ratioP2;P2;SDS_P1;SDS_P2;PMS_P1;PMS_P2;Temp;Humidity;BMP_temperature;BMP_pressure;BME280_temperature;BME280_humidity;BME280_pressure;Samples;Min_cycle;Max_cycle;Signal;HPM_P1;HPM_P2
2022/08/14 00:00:10;;;;;;;;;9.67;7.33;;;;;26.76;42.18;100526.38;4914357;28;45450;-96
2022/08/14 00:02:35;;;;;;;;;5.33;4.33;;;;;26.82;42.14;100535.22;4913116;28;45631;-95
2022/08/14 00:05:01;;;;;;;;;6.67;6.67;;;;;26.68;42.63;100506.84;4912861;28;46971;-96
2022/08/14 00:07:27;;;;;;;;;6.67;6.67;;;;;26.71;42.25;100514.84;4914099;28;45513;-95
2022/08/14 00:09:53;;;;;;;;;6.00;6.00;;;;;26.58;42.35;100494.56;4914227;28;45572;-95
2022/08/14 00:12:18;;;;;;;;;7.67;6.67;;;;;26.60;42.60;100495.38;4898043;29;45520;-96
2022/08/14 00:14:44;;;;;;;;;6.33;6.33;;;;;26.58;42.46;100495.44;4913223;28;46768;-96
2022/08/14 00:17:09;;;;;;;;;6.00;5.00;;;;;26.60;42.42;100500.78;4911200;28;46059;-96
2022/08/14 00:19:34;;;;;;;;;5.67;5.67;;;;;26.47;42.40;100486.78;4912981;28;45470;-96
2022/08/14 00:22:00;;;;;;;;;6.00;6.00;;;;;26.50;42.66;100489.38;4914097;28;45559;-96
2022/08/14 00:24:26;;;;;;;;;7.00;6.00;;;;;26.53;42.81;100495.56;4915273;28;47346;-94
2022/08/14 00:26:52;;;;;;;;;4.33;4.33;;;;;26.55;42.85;100495.50;4900884;28;45443;-95
2022/08/14 00:29:17;;;;;;;;;5.00;5.00;;;;;26.39;42.80;100468.97;4914537;28;45533;-96
2022/08/14 00:31:43;;;;;;;;;4.33;4.33;;;;;26.47;42.93;100487.63;4916054;28;45284;-96
2022/08/14 00:34:08;;;;;;;;;6.00;4.00;;;;;26.48;42.86;100488.53;4898052;28;47282;-96
2022/08/14 00:36:34;;;;;;;;;4.00;4.00;;;;;26.39;43.43;100471.66;4912428;28;45484;-96
2022/08/14 00:38:59;;;;;;;;;5.00;5.00;;;;;26.24;43.13;100456.78;4913091;28;45479;-96
2022/08/14 00:41:30;;;;;;;;;3.67;3.67;;;;;26.34;42.91;100468.19;4897525;29;45654;-95
2022/08/14 00:43:56;;;;;;;;;7.00;6.00;;;;;26.30;43.48;100463.81;4874371;29;47332;-96
2022/08/14 00:46:22;;;;;;;;;4.00;4.00;;;;;26.26;43.50;100471.09;4904545;28;45519;-96
2022/08/14 00:48:47;;;;;;;;;4.67;4.67;;;;;26.20;43.35;100464.06;4907481;28;45427;-95
2022/08/14 00:51:13;;;;;;;;;5.67;4.67;;;;;26.20;43.57;100468.56;4890310;29;45536;-95
2022/08/14 00:53:39;;;;;;;;;4.00;4.00;;;;;26.10;43.47;100455.34;4912760;28;48118;-95
2022/08/14 00:56:06;;;;;;;;;7.33;6.00;;;;;26.04;43.59;100446.53;4913903;28;45336;-95
2022/08/14 00:58:32;;;;;;;;;5.00;5.00;;;;;26.17;43.73;100465.94;4928217;28;45323;-96
2022/08/14 01:01:03;;;;;;;;;5.00;4.00;;;;;26.14;43.86;100466.00;4935468;28;45602;-95
2022/08/14 01:03:29;;;;;;;;;8.00;6.00;;;;;25.96;43.57;100434.16;4935877;28;47317;-96
2022/08/14 01:05:54;;;;;;;;;5.00;5.00;;;;;25.94;43.47;100437.81;4919471;28;45408;-95
2022/08/14 01:08:23;;;;;;;;;3.33;3.00;;;;;26.01;43.73;100450.19;4935692;28;45694;-95
2022/08/14 01:10:51;;;;;;;;;4.00;4.00;;;;;26.05;43.80;100453.69;4920118;28;45462;-96
2022/08/14 01:13:24;;;;;;;;;3.67;3.67;;;;;25.98;44.16;100436.81;4920122;28;47490;-96
2022/08/14 01:15:55;;;;;;;;;4.00;4.00;;;;;25.89;43.61;100411.94;4919922;28;45959;-96
2022/08/14 01:21:10;;;;;;;;;5.00;5.00;;;;;25.91;44.12;100413.69;4920914;28;45286;-96
2022/08/14 01:23:42;;;;;;;;;3.33;3.33;;;;;25.84;44.01;100404.91;4935591;28;47320;-96
2022/08/14 01:26:09;;;;;;;;;2.00;2.00;;;;;25.80;44.23;100396.00;4953206;28;45418;-96
2022/08/14 01:28:36;;;;;;;;;3.67;3.67;;;;;25.82;43.87;100396.84;4948610;28;45508;-95
2022/08/14 01:31:11;;;;;;;;;4.00;4.00;;;;;25.86;44.32;100406.63;4920863;28;45304;-96
2022/08/14 01:33:43;;;;;;;;;3.33;3.00;;;;;25.92;44.23;100423.53;4936702;28;48382;-96
2022/08/14 01:36:09;;;;;;;;;4.33;4.33;;;;;25.86;44.34;100414.69;4917419;28;45986;-96
2022/08/14 01:38:37;;;;;;;;;3.00;2.67;;;;;25.75;44.53;100397.94;4900950;29;45479;-95
2022/08/14 01:41:10;;;;;;;;;6.00;5.00;;;;;25.84;44.26;100419.22;4901631;29;45285;-96
2022/08/14 01:43:49;;;;;;;;;2.00;2.00;;;;;25.87;44.48;100432.56;4910471;28;48407;-96
2022/08/14 01:46:20;;;;;;;;;6.00;4.00;;;;;25.72;44.27;100403.38;4917255;28;46015;-96
2022/08/14 01:48:47;;;;;;;;;3.00;3.00;;;;;25.74;44.46;100409.63;4917375;28;45578;-96
2022/08/14 01:51:15;;;;;;;;;4.67;2.00;;;;;25.72;44.37;100398.84;4901305;29;45582;-96
2022/08/14 01:53:46;;;;;;;;;3.00;3.00;;;;;25.81;44.47;100418.41;4911380;28;47257;-96
2022/08/14 01:56:15;;;;;;;;;2.00;2.00;;;;;25.72;44.16;100406.06;4920568;28;45403;-96
2022/08/14 01:58:42;;;;;;;;;4.00;4.00;;;;;25.77;44.33;100410.41;4935873;28;45548;-96
2022/08/14 02:01:07;;;;;;;;;2.67;2.67;;;;;25.77;44.55;100413.09;4935817;28;45512;-96
2022/08/14 02:03:39;;;;;;;;;3.67;3.67;;;;;25.70;44.78;100403.38;4936292;28;48838;-96
2022/08/14 02:06:04;;;;;;;;;3.33;3.33;;;;;25.64;44.24;100390.97;4936276;28;45365;-95
2022/08/14 02:08:30;;;;;;;;;4.00;4.00;;;;;25.68;44.33;100407.91;4920395;28;45380;-96
2022/08/14 02:13:45;;;;;;;;;4.33;3.00;;;;;25.70;44.94;100398.00;4920975;28;45339;-96
2022/08/14 02:16:11;;;;;;;;;4.00;2.67;;;;;25.63;44.73;100389.22;4919511;28;45804;-96
2022/08/14 02:18:38;;;;;;;;;2.00;2.00;;;;;25.56;44.86;100374.16;4920161;28;45467;-95
2022/08/14 02:21:04;;;;;;;;;3.00;3.00;;;;;25.56;44.87;100374.16;4920621;28;45559;-96
2022/08/14 02:23:31;;;;;;;;;4.00;4.00;;;;;25.58;45.16;100375.00;4920828;28;47182;-96
2022/08/14 02:25:58;;;;;;;;;4.00;4.00;;;;;25.52;44.77;100361.72;4918388;28;45483;-95
2022/08/14 02:28:25;;;;;;;;;5.00;4.00;;;;;25.47;45.10;100351.06;4919875;28;45498;-96
2022/08/14 02:30:51;;;;;;;;;3.00;3.00;;;;;25.44;45.11;100356.50;4919057;28;45584;-95
2022/08/14 02:33:17;;;;;;;;;2.33;2.33;;;;;25.48;45.14;100360.03;4918085;28;47133;-96
2022/08/14 02:35:43;;;;;;;;;3.00;3.00;;;;;25.46;45.14;100356.50;4918926;28;45582;-95
2022/08/14 02:38:09;;;;;;;;;3.00;2.00;;;;;25.51;44.92;100363.50;4935093;28;45445;-95
2022/08/14 02:40:36;;;;;;;;;2.00;2.00;;;;;25.38;45.32;100338.75;4919146;28;45360;-96
2022/08/14 02:43:03;;;;;;;;;3.67;2.67;;;;;25.44;45.24;100353.81;4918985;28;48262;-94
2022/08/14 02:45:31;;;;;;;;;4.67;3.00;;;;;25.36;45.07;100332.50;4933688;28;45928;-96
2022/08/14 02:47:57;;;;;;;;;4.33;4.33;;;;;25.49;45.33;100359.09;4935119;28;45487;-96
2022/08/14 02:50:23;;;;;;;;;3.00;3.00;;;;;25.47;45.16;100359.13;4918523;28;45682;-96
2022/08/14 02:52:48;;;;;;;;;2.67;2.67;;;;;25.46;45.48;100343.94;4929938;28;47111;-95
2022/08/14 02:55:13;;;;;;;;;4.00;4.00;;;;;25.48;45.26;100349.28;4934424;28;45344;-96
2022/08/14 02:57:40;;;;;;;;;4.33;4.00;;;;;25.42;45.41;100337.75;4934812;28;45339;-95
2022/08/14 03:00:07;;;;;;;;;3.00;3.00;;;;;25.43;45.24;100327.91;4935433;28;45338;-96
2022/08/14 03:02:33;;;;;;;;;3.00;3.00;;;;;25.52;45.29;100353.66;4934797;28;47087;-96
2022/08/14 03:04:59;;;;;;;;;3.00;3.00;;;;;25.39;45.05;100326.19;4934410;28;45454;-96
2022/08/14 03:07:24;;;;;;;;;6.67;4.33;;;;;25.42;45.12;100337.75;4918772;28;45617;-96
2022/08/14 03:09:50;;;;;;;;;5.67;4.67;;;;;25.41;45.43;100335.13;4918770;28;45614;-96
2022/08/14 03:12:15;;;;;;;;;5.00;5.00;;;;;25.42;45.39;100340.44;4935251;28;46925;-96
2022/08/14 03:14:48;;;;;;;;;4.00;4.00;;;;;25.43;45.31;100347.59;4918881;28;46021;-96
2022/08/14 03:17:14;;;;;;;;;6.33;5.00;;;;;25.34;45.41;100339.72;4918649;28;45380;-96
2022/08/14 03:19:40;;;;;;;;;4.00;4.00;;;;;25.40;45.25;100346.78;4921691;28;45589;-96
2022/08/14 03:22:06;;;;;;;;;3.67;3.67;;;;;25.31;45.57;100335.31;4915252;28;48608;-96
2022/08/14 03:24:31;;;;;;;;;4.67;4.67;;;;;25.35;45.37;100338.81;4923062;28;45403;-96
2022/08/14 03:26:57;;;;;;;;;4.67;4.00;;;;;25.37;45.43;100345.03;4939499;28;45439;-96
2022/08/14 03:29:23;;;;;;;;;4.33;4.33;;;;;25.36;45.44;100343.25;4953655;28;45401;-96
2022/08/14 03:31:50;;;;;;;;;4.00;3.00;;;;;25.32;45.36;100338.88;4930339;28;48778;-96
2022/08/14 03:34:16;;;;;;;;;4.67;4.67;;;;;25.29;45.42;100329.09;4917686;28;45421;-96
2022/08/14 03:36:44;;;;;;;;;4.00;4.00;;;;;25.24;45.65;100324.75;4934898;28;45482;-95
2022/08/14 03:39:11;;;;;;;;;5.67;5.67;;;;;25.35;45.70;100340.63;4917706;28;45505;-96
2022/08/14 03:41:36;;;;;;;;;4.00;4.00;;;;;25.37;46.04;100347.72;4933858;28;47935;-96
2022/08/14 03:44:05;;;;;;;;;6.33;6.00;;;;;25.35;45.57;100343.31;4917378;28;45543;-95
2022/08/14 03:46:33;;;;;;;;;6.00;5.00;;;;;25.35;45.86;100343.31;4918655;28;45330;-96
2022/08/14 03:49:03;;;;;;;;;5.33;4.00;;;;;25.24;45.78;100333.69;4917907;28;45453;-96
2022/08/14 03:51:28;;;;;;;;;5.00;5.00;;;;;25.25;45.74;100339.94;4934376;28;47330;-96
2022/08/14 03:53:59;;;;;;;;;6.00;3.33;;;;;25.28;45.97;100350.63;4933442;28;45748;-96
2022/08/14 03:56:26;;;;;;;;;4.33;4.00;;;;;25.29;45.78;100344.31;4934914;28;45525;-96
2022/08/14 03:58:54;;;;;;;;;6.00;6.00;;;;;25.26;45.91;100353.34;4917369;28;45522;-96
2022/08/14 04:01:23;;;;;;;;;6.00;5.67;;;;;25.17;46.26;100349.06;4934844;28;48427;-96
2022/08/14 04:03:50;;;;;;;;;4.00;4.00;;;;;25.28;46.14;100369.44;4934349;28;45510;-96
2022/08/14 04:06:16;;;;;;;;;5.33;5.33;;;;;25.20;46.14;100356.19;4934875;28;45469;-95
2022/08/14 04:08:42;;;;;;;;;7.00;4.67;;;;;25.29;46.13;100379.25;4935118;28;45482;-96
2022/08/14 04:11:09;;;;;;;;;5.67;5.33;;;;;25.18;46.36;100361.56;4934613;28;47585;-96
2022/08/14 04:13:37;;;;;;;;;5.67;5.00;;;;;25.14;46.50;100353.59;4917688;28;45499;-96
2022/08/14 04:16:06;;;;;;;;;7.33;5.00;;;;;25.16;46.14;100363.41;4901490;28;45647;-95
2022/08/14 04:18:32;;;;;;;;;5.33;5.00;;;;;25.19;46.28;100370.50;4917456;28;45494;-96
2022/08/14 04:20:57;;;;;;;;;4.33;4.33;;;;;25.10;46.47;100359.03;4917123;28;47142;-95
2022/08/14 04:23:24;;;;;;;;;3.00;3.00;;;;;25.05;46.71;100349.34;4917516;28;45454;-96
2022/08/14 04:25:53;;;;;;;;;3.33;3.33;;;;;25.05;46.64;100338.59;4916723;28;45501;-96
2022/08/14 04:28:18;;;;;;;;;5.00;5.00;;;;;25.02;46.57;100344.03;4911536;28;45545;-95
2022/08/14 04:30:44;;;;;;;;;3.67;3.67;;;;;25.10;46.77;100366.25;4913885;28;47075;-96
2022/08/14 04:33:10;;;;;;;;;5.00;5.00;;;;;25.14;46.75;100372.41;4919241;28;45437;-96
2022/08/14 04:35:37;;;;;;;;;4.00;4.00;;;;;25.03;46.80;100362.78;4916151;28;45522;-96
2022/08/14 04:43:35;;;;;;;;;3.67;3.67;;;;;25.07;47.02;100359.13;4917672;28;45495;-96
2022/08/14 04:46:01;;;;;;;;;5.00;5.00;;;;;24.93;46.89;100331.66;4932530;28;45360;-95
2022/08/14 04:48:27;;;;;;;;;4.00;4.00;;;;;25.02;47.23;100336.88;4924827;28;45458;-95
2022/08/14 04:50:52;;;;;;;;;4.00;4.00;;;;;24.98;47.36;100316.31;4916938;28;47972;-96
2022/08/14 04:53:22;;;;;;;;;4.00;4.00;;;;;24.91;46.99;100314.69;4917002;28;45456;-95
2022/08/14 04:55:49;;;;;;;;;3.67;3.67;;;;;25.04;47.52;100339.50;4917055;28;45439;-95
2022/08/14 04:58:23;;;;;;;;;6.33;5.00;;;;;24.88;47.51;100307.59;4916521;28;45490;-96
2022/08/14 05:00:50;;;;;;;;;4.00;4.00;;;;;24.96;47.43;100324.44;4932845;28;48078;-95
2022/08/14 05:03:20;;;;;;;;;5.00;3.67;;;;;25.01;46.93;100329.72;4932415;28;45748;-95
2022/08/14 05:05:57;;;;;;;;;5.00;5.00;;;;;24.88;47.32;100300.44;4916828;28;45404;-95
2022/08/14 05:08:23;;;;;;;;;5.00;5.00;;;;;24.88;47.49;100294.19;4932461;28;45359;-95
2022/08/14 05:10:51;;;;;;;;;4.33;4.00;;;;;24.91;47.56;100296.81;4916368;28;47078;-95
2022/08/14 05:13:18;;;;;;;;;8.00;5.00;;;;;24.94;48.04;100288.69;4932727;28;45714;-96
2022/08/14 05:15:45;;;;;;;;;5.67;4.67;;;;;24.98;47.80;100285.00;4929699;28;45848;-95
2022/08/14 05:18:14;;;;;;;;;5.00;5.00;;;;;24.93;47.51;100292.28;4932064;28;45788;-96
2022/08/14 05:20:45;;;;;;;;;3.67;3.67;;;;;25.02;47.95;100314.50;4916140;28;48086;-96
2022/08/14 05:23:17;;;;;;;;;4.67;4.00;;;;;24.87;47.60;100295.09;4931724;28;45382;-96
2022/08/14 05:25:43;;;;;;;;;5.00;5.00;;;;;24.89;47.97;100302.19;4929005;28;45481;-96
2022/08/14 05:28:20;;;;;;;;;5.00;5.00;;;;;24.99;47.92;100316.31;4935848;28;45579;-96
2022/08/14 05:30:50;;;;;;;;;4.00;4.00;;;;;25.03;47.76;100344.00;4952741;28;48367;-96
2022/08/14 05:33:17;;;;;;;;;5.33;5.33;;;;;24.89;47.96;100312.06;4952954;28;45460;-96
2022/08/14 05:35:47;;;;;;;;;6.00;4.00;;;;;24.92;47.92;100301.22;4919504;28;45537;-96
2022/08/14 05:38:15;;;;;;;;;5.00;5.00;;;;;24.97;47.81;100319.94;4898596;29;45583;-96
2022/08/14 05:40:42;;;;;;;;;3.67;3.67;;;;;24.89;47.90;100315.59;4914383;28;47470;-95
2022/08/14 05:43:08;;;;;;;;;6.67;5.00;;;;;24.99;48.35;100329.72;4900194;29;45945;-96
2022/08/14 05:45:34;;;;;;;;;7.33;6.00;;;;;24.99;48.50;100327.06;4898726;29;45580;-96
2022/08/14 05:48:00;;;;;;;;;5.00;5.00;;;;;24.95;48.47;100314.59;4901396;29;45360;-96
2022/08/14 05:50:26;;;;;;;;;5.67;5.00;;;;;24.93;49.28;100284.22;4913273;28;47081;-95
2022/08/14 05:52:53;;;;;;;;;6.33;6.33;;;;;25.10;49.64;100299.13;4935362;28;45452;-95
2022/08/14 05:55:20;;;;;;;;;6.00;6.00;;;;;25.05;49.88;100275.03;4934268;28;45330;-95
2022/08/14 05:57:47;;;;;;;;;5.00;5.00;;;;;25.20;50.24;100284.53;4932938;28;45345;-96
2022/08/14 06:00:14;;;;;;;;;5.00;5.00;;;;;25.13;49.79;100271.31;4915695;28;48404;-96
2022/08/14 06:02:40;;;;;;;;;5.00;5.00;;;;;25.15;50.11;100275.69;4916630;28;46109;-95
2022/08/14 06:05:05;;;;;;;;;8.00;8.00;;;;;25.24;49.98;100263.88;4921752;28;45443;-96
2022/08/14 06:07:35;;;;;;;;;6.67;6.00;;;;;25.29;50.39;100271.81;4935198;28;45559;-96
2022/08/14 06:10:00;;;;;;;;;6.67;6.00;;;;;25.37;50.47;100260.88;4920951;28;47459;-96
2022/08/14 06:12:26;;;;;;;;;5.33;5.33;;;;;25.46;50.90;100271.41;4922742;28;45581;-96
2022/08/14 06:14:51;;;;;;;;;6.67;5.67;;;;;25.42;50.62;100273.28;4911305;28;45498;-96
2022/08/14 06:17:17;;;;;;;;;6.00;6.00;;;;;25.46;50.90;100260.69;4919057;28;45388;-96
2022/08/14 06:19:42;;;;;;;;;8.00;8.00;;;;;25.60;51.17;100251.34;4917354;28;48136;-96
2022/08/14 06:22:08;;;;;;;;;8.00;6.33;;;;;25.53;50.87;100282.88;4920206;28;45792;-96
2022/08/14 06:24:33;;;;;;;;;4.00;4.00;;;;;25.41;51.24;100255.38;4926552;28;45244;-96
2022/08/14 06:26:59;;;;;;;;;7.67;7.67;;;;;25.43;50.91;100263.44;4958508;28;45501;-96
2022/08/14 06:29:24;;;;;;;;;6.00;6.00;;;;;25.39;51.21;100259.03;4933589;28;48375;-96
2022/08/14 06:31:50;;;;;;;;;6.00;5.67;;;;;25.39;51.18;100261.72;4938230;28;45566;-96
2022/08/14 06:34:15;;;;;;;;;6.67;6.00;;;;;25.48;51.43;100263.31;4921202;28;45475;-96
2022/08/14 06:36:41;;;;;;;;;6.67;6.67;;;;;25.54;51.26;100273.88;4937532;28;45454;-96
2022/08/14 06:39:07;;;;;;;;;6.33;6.33;;;;;25.57;51.44;100265.75;4934185;28;48333;-96
2022/08/14 06:41:32;;;;;;;;;6.33;5.00;;;;;25.48;51.40;100260.63;4903638;28;45413;-96
2022/08/14 06:43:59;;;;;;;;;6.00;6.00;;;;;25.52;51.65;100254.25;4937536;28;45542;-96
2022/08/14 06:57:10;;;;;;;;;8.67;7.00;;;;;25.72;52.13;100291.34;5883695;23;46096;31
2022/08/14 06:59:36;;;;;;;;;5.00;5.00;;;;;25.74;52.08;100289.56;4912114;28;47912;-93
2022/08/14 07:07:37;;;;;;;;;6.67;6.67;;;;;25.89;52.18;100285.59;4903777;28;45429;-92
2022/08/14 07:10:03;;;;;;;;;6.00;6.00;;;;;25.91;52.44;100282.84;4910324;28;46211;-92
2022/08/14 07:12:29;;;;;;;;;6.00;6.00;;;;;25.99;52.54;100282.66;4909298;28;45366;-93
2022/08/14 07:14:54;;;;;;;;;8.67;8.67;;;;;26.04;52.77;100283.41;4915527;28;45731;-91
2022/08/14 07:17:19;;;;;;;;;7.00;6.00;;;;;26.10;52.69;100274.28;4916980;28;45478;-92
2022/08/14 07:19:45;;;;;;;;;7.00;5.67;;;;;26.19;52.40;100287.47;4910998;28;61749;-94
2022/08/14 07:22:10;;;;;;;;;6.00;6.00;;;;;26.24;51.93;100271.19;4922734;28;60297;-94
2022/08/14 07:24:35;;;;;;;;;6.33;5.33;;;;;26.31;51.42;100290.75;4919335;28;59119;-95
2022/08/14 07:27:00;;;;;;;;;5.33;5.33;;;;;26.39;51.20;100294.09;4937039;28;45339;-92
2022/08/14 07:29:26;;;;;;;;;5.00;5.00;;;;;26.50;50.48;100309.97;4931638;28;53339;-93
2022/08/14 07:31:51;;;;;;;;;4.00;4.00;;;;;26.57;50.13;100309.81;4920016;28;45447;-92
2022/08/14 07:34:17;;;;;;;;;4.00;4.00;;;;;26.71;49.75;100318.34;4916979;28;45706;-93
2022/08/14 07:36:42;;;;;;;;;6.33;5.00;;;;;26.84;49.53;100308.09;4914764;28;45754;-92
2022/08/14 07:39:08;;;;;;;;;4.67;4.67;;;;;27.00;49.25;100316.59;4899887;28;46153;-91
2022/08/14 07:41:33;;;;;;;;;5.67;5.00;;;;;27.13;48.87;100302.78;4908055;28;45819;-92
2022/08/14 07:43:58;;;;;;;;;3.00;3.00;;;;;27.27;48.61;100305.03;4907777;28;47812;-91
2022/08/14 07:46:24;;;;;;;;;4.00;3.00;;;;;27.42;48.61;100316.25;4909218;28;45502;-91
2022/08/14 07:48:49;;;;;;;;;5.00;5.00;;;;;27.56;48.39;100324.75;4931441;28;48140;-91
2022/08/14 07:51:14;;;;;;;;;5.00;4.00;;;;;27.60;48.15;100320.13;4916399;28;45529;-90
2022/08/14 07:53:40;;;;;;;;;5.00;4.00;;;;;27.66;47.77;100324.44;4906075;28;48391;-89
2022/08/14 07:56:05;;;;;;;;;4.00;2.33;;;;;27.67;48.05;100308.25;4901572;28;66179;-87
2022/08/14 07:58:31;;;;;;;;;5.00;5.00;;;;;27.74;47.83;100295.41;4881348;29;47273;-88
2022/08/14 08:00:57;;;;;;;;;6.33;5.00;;;;;27.87;47.30;100293.22;4886941;29;45436;-88
2022/08/14 08:03:26;;;;;;;;;6.00;6.00;;;;;27.93;47.03;100288.53;4898963;29;45424;-88
2022/08/14 08:05:51;;;;;;;;;4.00;4.00;;;;;28.00;47.04;100287.38;4898235;29;45515;-89
2022/08/14 08:08:19;;;;;;;;;5.00;5.00;;;;;28.09;47.74;100300.53;4890310;29;48101;-92
2022/08/14 08:10:45;;;;;;;;;4.67;4.67;;;;;28.15;47.25;100296.75;4894766;29;45522;-88
2022/08/14 08:13:13;;;;;;;;;4.00;4.00;;;;;28.20;47.44;100301.97;4898016;29;45506;-95
2022/08/14 08:15:42;;;;;;;;;4.33;4.33;;;;;28.11;47.21;100296.00;4939751;23;45580;-96
2022/08/14 08:18:09;;;;;;;;;4.67;4.33;;;;;27.99;47.16;100277.53;4998875;28;45595;-95
2022/08/14 08:20:39;;;;;;;;;4.00;4.00;;;;;28.21;46.93;100298.34;4998976;28;44752;-96
2022/08/14 08:23:05;;;;;;;;;5.00;3.00;;;;;28.29;46.91;100307.06;4973388;28;45554;-96
2022/08/14 08:25:36;;;;;;;;;4.67;4.67;;;;;28.31;46.97;100307.88;4962950;28;45235;-92
2022/08/14 08:28:07;;;;;;;;;5.33;4.67;;;;;28.39;46.90;100314.81;4976055;28;45476;-92
2022/08/14 08:30:38;;;;;;;;;4.00;4.00;;;;;28.43;46.39;100319.13;4975995;28;46232;-94
2022/08/14 08:33:05;;;;;;;;;4.00;2.33;;;;;28.51;46.16;100311.69;4959379;28;45431;-93
2022/08/14 08:35:37;;;;;;;;;5.33;5.00;;;;;28.68;46.64;100307.47;4975084;28;46846;-92
2022/08/14 08:38:08;;;;;;;;;3.00;3.00;;;;;28.96;46.33;100319.03;4954076;28;47924;-92
2022/08/14 08:40:40;;;;;;;;;4.33;4.00;;;;;29.18;46.28;100319.06;4972992;28;45377;-93
2022/08/14 08:43:15;;;;;;;;;4.00;4.00;;;;;29.26;45.40;100310.66;4975310;28;45884;-95
2022/08/14 08:45:41;;;;;;;;;5.67;4.67;;;;;29.28;45.07;100321.41;4960554;28;45359;-92
2022/08/14 08:48:22;;;;;;;;;4.67;3.00;;;;;29.20;45.45;100300.97;4963255;28;47028;-96
2022/08/14 08:51:11;;;;;;;;;3.00;3.00;;;;;29.40;45.51;100329.03;4966756;28;45535;-96
2022/08/14 09:02:55;;;;;;;;;4.00;4.00;;;;;29.89;46.31;100308.97;6078489;23;45225;31
2022/08/14 09:05:21;;;;;;;;;6.00;5.33;;;;;30.06;46.34;100296.56;4898897;28;45420;-95
2022/08/14 09:07:46;;;;;;;;;5.00;5.00;;;;;30.33;46.39;100298.13;4900807;28;45330;-93
2022/08/14 09:10:11;;;;;;;;;8.33;5.00;;;;;30.51;46.21;100280.16;4933057;28;48476;-95
2022/08/14 09:12:38;;;;;;;;;5.00;5.00;;;;;30.82;46.18;100287.78;4901377;28;45839;-95
2022/08/14 09:15:05;;;;;;;;;5.00;5.00;;;;;30.95;46.20;100267.31;4913067;28;46361;-95
2022/08/14 09:17:34;;;;;;;;;8.00;6.00;;;;;31.10;46.06;100286.50;4900811;28;45429;-94
2022/08/14 09:20:00;;;;;;;;;6.00;4.33;;;;;31.20;46.28;100279.66;4911600;28;47274;-92
2022/08/14 09:22:26;;;;;;;;;5.33;5.33;;;;;31.32;46.83;100271.88;4915256;28;45615;-93
2022/08/14 09:24:53;;;;;;;;;5.00;5.00;;;;;31.62;46.64;100292.97;4916045;28;45488;-91
2022/08/14 09:27:18;;;;;;;;;4.00;4.00;;;;;31.71;46.76;100286.22;4914925;28;45440;-91
2022/08/14 09:29:44;;;;;;;;;6.00;4.67;;;;;31.80;46.90;100268.59;4899201;28;47290;-91
2022/08/14 09:32:15;;;;;;;;;4.00;4.00;;;;;31.92;46.72;100264.34;4900909;28;45473;-89
2022/08/14 09:34:55;;;;;;;;;2.00;2.00;;;;;32.17;46.18;100284.78;4905249;28;45355;-93
2022/08/14 09:37:57;;;;;;;;;4.00;4.00;;;;;32.36;46.39;100285.63;4905449;28;45365;-91
2022/08/14 09:40:49;;;;;;;;;4.33;3.67;;;;;32.47;45.90;100299.50;4903019;28;48252;-91
2022/08/14 09:43:42;;;;;;;;;6.00;5.00;;;;;32.59;45.64;100283.47;4910567;28;45408;-91
2022/08/14 09:46:08;;;;;;;;;3.33;3.33;;;;;32.62;45.60;100294.19;4903587;28;45899;-88
2022/08/14 09:48:34;;;;;;;;;2.33;2.00;;;;;32.60;45.70;100287.97;4919375;28;45474;-93
2022/08/14 09:51:00;;;;;;;;;5.00;5.00;;;;;32.64;45.75;100292.25;4919583;28;48255;-93
2022/08/14 09:53:34;;;;;;;;;5.33;4.67;;;;;32.73;45.53;100302.63;4904182;28;46007;-92
2022/08/14 09:56:00;;;;;;;;;5.67;4.67;;;;;32.79;46.07;100306.84;4895625;29;45353;-93
2022/08/14 09:58:46;;;;;;;;;6.33;4.67;;;;;32.88;45.89;100308.19;4892652;28;45399;-95
2022/08/14 10:01:20;;;;;;;;;5.67;3.67;;;;;32.89;45.99;100297.22;4908612;28;48300;-95
2022/08/14 10:03:56;;;;;;;;;5.67;4.00;;;;;33.13;45.56;100306.78;4912636;28;45353;-94
2022/08/14 10:06:24;;;;;;;;;3.33;3.33;;;;;33.39;46.12;100290.81;4904604;29;45419;-91
2022/08/14 10:08:50;;;;;;;;;5.33;4.00;;;;;33.67;45.77;100293.75;4886105;29;45571;-88
2022/08/14 10:11:26;;;;;;;;;6.00;3.33;;;;;33.90;45.25;100286.06;4901369;29;47320;-93
2022/08/14 10:13:56;;;;;;;;;5.00;3.67;;;;;34.13;45.41;100283.75;4901569;29;45400;-93
2022/08/14 10:16:25;;;;;;;;;3.00;3.00;;;;;34.36;45.00;100292.34;4895369;29;45463;-92
2022/08/14 10:19:12;;;;;;;;;4.00;4.00;;;;;34.67;44.75;100286.78;4881300;29;45604;-91
2022/08/14 10:21:40;;;;;;;;;4.33;4.33;;;;;34.81;44.74;100277.75;4881399;29;45467;-84
2022/08/14 10:24:09;;;;;;;;;5.00;4.00;;;;;34.89;44.34;100282.72;4881999;29;45427;-84
2022/08/14 10:26:35;;;;;;;;;3.67;3.33;;;;;34.98;44.42;100282.09;4891185;29;45477;-90
2022/08/14 10:29:09;;;;;;;;;4.67;4.67;;;;;34.92;44.31;100281.66;4887554;29;45615;-88
2022/08/14 10:31:35;;;;;;;;;5.33;4.67;;;;;34.73;44.56;100278.25;4895825;29;46172;-86
2022/08/14 10:34:06;;;;;;;;;5.00;5.00;;;;;34.57;44.38;100286.50;4911936;28;45497;-87
2022/08/14 10:36:40;;;;;;;;;6.33;6.33;;;;;34.33;44.33;100285.25;4887078;29;45492;-89
2022/08/14 10:39:18;;;;;;;;;8.67;5.33;;;;;34.12;44.72;100280.16;4893740;29;45346;-86
2022/08/14 10:41:45;;;;;;;;;3.33;3.33;;;;;33.94;44.44;100286.75;4880751;29;45460;-87
2022/08/14 10:44:15;;;;;;;;;3.67;3.67;;;;;33.77;44.99;100288.63;4888718;29;45520;-87
2022/08/14 10:46:57;;;;;;;;;4.00;4.00;;;;;33.64;45.36;100289.34;4899662;29;45251;-85
2022/08/14 10:49:25;;;;;;;;;4.33;3.00;;;;;33.60;45.27;100295.97;4897218;29;45403;-87
2022/08/14 10:51:55;;;;;;;;;3.33;3.33;;;;;33.65;45.43;100298.41;4892580;28;46128;-86
2022/08/14 10:54:30;;;;;;;;;2.67;2.67;;;;;33.65;45.20;100310.16;4895647;29;45569;-88
2022/08/14 10:56:57;;;;;;;;;4.00;4.00;;;;;33.65;45.14;100296.56;4899554;29;45339;-84
2022/08/14 10:59:22;;;;;;;;;6.00;4.00;;;;;33.59;45.64;100301.47;4893707;28;45510;-86
2022/08/14 11:01:48;;;;;;;;;4.00;3.33;;;;;33.47;45.54;100305.81;4897799;28;45520;-93
2022/08/14 11:04:24;;;;;;;;;3.33;3.33;;;;;33.23;46.32;100305.31;4908496;28;45367;-88
2022/08/14 11:06:54;;;;;;;;;4.00;4.00;;;;;32.96;46.00;100315.91;4911964;28;45452;-91
2022/08/14 11:09:19;;;;;;;;;4.00;2.33;;;;;32.72;46.12;100306.31;4914923;28;46810;-90
2022/08/14 11:11:46;;;;;;;;;3.67;3.00;;;;;32.70;46.40;100300.09;4911781;28;46134;-90
2022/08/14 11:14:15;;;;;;;;;4.00;2.67;;;;;32.70;45.97;100310.09;4920914;28;45440;-90
2022/08/14 11:16:43;;;;;;;;;4.00;4.00;;;;;32.68;46.24;100304.72;4928207;28;45509;-92
2022/08/14 11:19:10;;;;;;;;;4.00;4.00;;;;;32.68;46.19;100304.72;4918825;28;45629;-90
2022/08/14 11:21:39;;;;;;;;;3.00;3.00;;;;;32.63;46.21;100312.22;4937861;28;46918;-90
2022/08/14 11:24:07;;;;;;;;;3.67;3.67;;;;;32.46;46.50;100300.47;4932256;28;45666;-92
2022/08/14 11:26:37;;;;;;;;;5.33;5.00;;;;;32.28;47.21;100308.66;4926624;28;45301;-89
2022/08/14 11:29:04;;;;;;;;;3.33;3.33;;;;;32.22;46.93;100301.69;4924665;28;45639;-85
2022/08/14 11:31:32;;;;;;;;;4.00;4.00;;;;;32.22;47.42;100315.28;4936866;28;45403;-85
2022/08/14 11:33:57;;;;;;;;;5.00;4.33;;;;;32.22;46.86;100307.13;4935816;28;45281;-85
2022/08/14 11:36:28;;;;;;;;;5.00;5.00;;;;;32.27;47.43;100315.03;4916518;28;45469;-85
2022/08/14 11:38:54;;;;;;;;;4.00;3.00;;;;;32.22;46.98;100303.53;4899364;28;45562;-85
2022/08/14 11:41:19;;;;;;;;;4.00;4.00;;;;;32.25;47.61;100316.06;4917188;28;46472;-85
2022/08/14 11:43:47;;;;;;;;;5.33;4.00;;;;;32.31;48.03;100311.19;4915275;28;45384;-85
2022/08/14 11:46:14;;;;;;;;;7.67;5.00;;;;;32.28;47.40;100308.66;4931585;28;45521;-85
2022/08/14 11:48:48;;;;;;;;;3.67;3.67;;;;;32.27;47.33;100306.00;4935329;28;45368;-85
2022/08/14 11:51:16;;;;;;;;;3.67;3.67;;;;;32.21;48.23;100309.94;4923236;28;46199;-85
2022/08/14 11:53:48;;;;;;;;;5.00;4.00;;;;;32.16;48.00;100310.19;4932145;28;45423;-85
2022/08/14 11:56:13;;;;;;;;;3.67;3.00;;;;;32.15;48.19;100315.69;4907289;28;45701;-85
2022/08/14 11:58:38;;;;;;;;;3.67;3.00;;;;;32.16;47.87;100314.72;4925747;28;46010;-85
2022/08/14 12:01:06;;;;;;;;;5.33;4.33;;;;;32.18;48.42;100313.69;4946129;28;45393;-85
2022/08/14 12:03:40;;;;;;;;;3.00;3.00;;;;;32.11;48.11;100310.41;4955228;28;45442;-85